createdAt,value
2019-04-16T00:00:42.420Z,0
2019-04-16T00:01:18.115Z,0
2019-04-16T00:01:58.593Z,0
2019-04-16T00:02:38.964Z,0
2019-04-16T00:03:20.211Z,0
2019-04-16T00:03:59.743Z,0
2019-04-16T00:04:40.096Z,0
2019-04-16T00:05:20.516Z,0
2019-04-16T00:06:00.943Z,0
2019-04-16T00:06:41.328Z,0
2019-04-16T00:07:21.783Z,0
2019-04-16T00:08:02.134Z,0
2019-04-16T00:08:42.511Z,0
2019-04-16T00:09:22.891Z,0
2019-04-16T00:10:03.284Z,0
2019-04-16T00:10:43.675Z,0
2019-04-16T00:11:24.065Z,0
2019-04-16T00:12:04.462Z,0
2019-04-16T00:12:44.835Z,0
2019-04-16T00:13:25.223Z,0
2019-04-16T00:14:05.623Z,0
2019-04-16T00:14:48.325Z,0
2019-04-16T00:15:28.613Z,0
2019-04-16T00:16:12.591Z,0
2019-04-16T00:16:50.199Z,0
2019-04-16T00:17:30.631Z,0
2019-04-16T00:18:10.998Z,0
2019-04-16T00:18:57.492Z,0
2019-04-16T00:19:35.279Z,0
2019-04-16T00:20:14.755Z,0
2019-04-16T00:20:55.097Z,0
2019-04-16T00:21:35.542Z,0
2019-04-16T00:22:15.889Z,0
2019-04-16T00:22:56.822Z,0
2019-04-16T00:23:37.287Z,0
2019-04-16T00:24:18.495Z,0
2019-04-16T00:24:58.188Z,0
2019-04-16T00:25:38.576Z,0
2019-04-16T00:27:59.474Z,0
2019-04-16T00:28:36.724Z,0
2019-04-16T00:29:17.115Z,0
2019-04-16T00:29:58.259Z,0
2019-04-16T00:30:38.630Z,0
2019-04-16T00:31:19.032Z,0
2019-04-16T00:31:59.429Z,0
2019-04-16T00:32:42.445Z,0
2019-04-16T00:33:20.334Z,0
2019-04-16T00:34:00.790Z,0
2019-04-16T00:34:44.451Z,0
2019-04-16T00:35:21.589Z,0
2019-04-16T00:36:02.019Z,0
2019-04-16T00:36:42.454Z,0
2019-04-16T00:37:22.844Z,0
2019-04-16T00:38:03.454Z,0
2019-04-16T00:38:43.633Z,0
2019-04-16T00:39:24.791Z,0
2019-04-16T00:40:04.458Z,0
2019-04-16T00:40:45.291Z,0
2019-04-16T00:41:25.298Z,0
2019-04-16T00:42:05.741Z,0
2019-04-16T00:42:46.167Z,0
2019-04-16T00:43:26.548Z,0
2019-04-16T00:44:06.953Z,0
2019-04-16T00:44:47.956Z,0
2019-04-16T00:45:28.341Z,0
2019-04-16T00:46:11.431Z,0
2019-04-16T00:46:52.318Z,0
2019-04-16T00:47:32.715Z,0
2019-04-16T00:48:13.135Z,0
2019-04-16T00:48:53.508Z,0
2019-04-16T00:49:33.938Z,0
2019-04-16T00:50:14.293Z,0
2019-04-16T00:50:54.734Z,0
2019-04-16T00:51:35.082Z,0
2019-04-16T00:52:15.473Z,0
2019-04-16T00:52:55.953Z,0
2019-04-16T00:53:39.016Z,0
2019-04-16T00:54:16.706Z,0
2019-04-16T00:54:57.092Z,0
2019-04-16T00:55:37.503Z,0
2019-04-16T00:56:17.928Z,0
2019-04-16T00:56:58.326Z,0
2019-04-16T00:57:38.778Z,0
2019-04-16T00:58:19.679Z,0
2019-04-16T00:58:59.603Z,0
2019-04-16T00:59:40.011Z,0
2019-04-16T01:00:20.405Z,0
2019-04-16T01:01:00.814Z,0
2019-04-16T01:01:41.245Z,0
2019-04-16T01:02:21.647Z,0
2019-04-16T01:03:02.118Z,0
2019-04-16T01:03:42.456Z,0
2019-04-16T01:04:22.811Z,0
2019-04-16T01:05:03.222Z,0
2019-04-16T01:05:43.613Z,0
2019-04-16T01:06:24.014Z,0
2019-04-16T01:07:04.596Z,0
2019-04-16T01:07:44.892Z,0
2019-04-16T01:08:25.279Z,0
2019-04-16T01:09:05.651Z,0
2019-04-16T01:09:46.021Z,0
2019-04-16T01:10:26.410Z,0
2019-04-16T01:11:06.861Z,0
2019-04-16T01:11:48.831Z,0
2019-04-16T01:12:27.632Z,0
2019-04-16T01:13:08.047Z,0
2019-04-16T01:13:48.433Z,0
2019-04-16T01:14:28.898Z,0
2019-04-16T01:15:09.215Z,0
2019-04-16T01:15:49.656Z,0
2019-04-16T01:16:30.237Z,0
2019-04-16T01:17:10.432Z,0
2019-04-16T01:17:50.825Z,0
2019-04-16T01:18:31.238Z,0
2019-04-16T01:19:11.632Z,0
2019-04-16T01:19:52.073Z,0
2019-04-16T01:20:32.492Z,0
2019-04-16T01:21:14.116Z,0
2019-04-16T01:21:53.367Z,0
2019-04-16T01:22:33.738Z,0
2019-04-16T01:23:17.472Z,0
2019-04-16T01:23:54.521Z,0
2019-04-16T01:24:34.950Z,0
2019-04-16T01:25:15.382Z,0
2019-04-16T01:25:56.235Z,0
2019-04-16T01:26:36.136Z,0
2019-04-16T01:27:18.177Z,0
2019-04-16T01:28:00.599Z,0
2019-04-16T01:28:39.050Z,0
2019-04-16T01:29:19.522Z,0
2019-04-16T01:30:04.842Z,0
2019-04-16T01:30:40.310Z,0
2019-04-16T01:31:20.703Z,0
2019-04-16T01:32:01.116Z,0
2019-04-16T01:32:43.563Z,0
2019-04-16T01:33:23.966Z,0
2019-04-16T01:34:04.373Z,0
2019-04-16T01:34:46.992Z,0
2019-04-16T01:35:25.147Z,0
2019-04-16T01:36:05.577Z,0
2019-04-16T01:36:45.944Z,0
2019-04-16T01:37:26.520Z,0
2019-04-16T01:38:06.806Z,0
2019-04-16T01:38:47.169Z,0
2019-04-16T01:39:27.582Z,0
2019-04-16T01:40:07.966Z,0
2019-04-16T01:40:50.091Z,0
2019-04-16T01:41:28.752Z,0
2019-04-16T01:42:09.177Z,0
2019-04-16T01:42:54.380Z,0
2019-04-16T01:43:30.218Z,0
2019-04-16T01:44:10.585Z,0
2019-04-16T01:44:50.999Z,0
2019-04-16T01:45:31.487Z,0
2019-04-16T01:46:11.900Z,0
2019-04-16T01:46:52.287Z,0
2019-04-16T01:47:36.963Z,0
2019-04-16T01:48:16.020Z,0
2019-04-16T01:48:56.372Z,0
2019-04-16T01:49:39.273Z,0
2019-04-16T01:50:18.769Z,0
2019-04-16T01:50:59.267Z,0
2019-04-16T01:51:39.508Z,0
2019-04-16T01:53:37.372Z,0
2019-04-16T01:54:22.485Z,0
2019-04-16T01:54:58.360Z,0
2019-04-16T01:55:38.589Z,0
2019-04-16T01:56:19.055Z,0
2019-04-16T01:57:00.474Z,0
2019-04-16T01:57:39.829Z,0
2019-04-16T01:58:20.232Z,0
2019-04-16T01:59:04.497Z,0
2019-04-16T01:59:41.030Z,0
2019-04-16T02:00:21.438Z,0
2019-04-16T02:01:01.863Z,0
2019-04-16T02:01:44.182Z,0
2019-04-16T02:02:25.451Z,0
2019-04-16T02:03:05.831Z,0
2019-04-16T02:03:48.833Z,0
2019-04-16T02:04:26.797Z,0
2019-04-16T02:05:07.065Z,0
2019-04-16T02:05:47.481Z,0
2019-04-16T02:06:27.888Z,0
2019-04-16T02:07:08.259Z,0
2019-04-16T02:07:48.679Z,0
2019-04-16T02:08:31.033Z,0
2019-04-16T02:09:21.579Z,0
2019-04-16T02:09:49.979Z,0
2019-04-16T02:10:30.310Z,0
2019-04-16T02:11:11.391Z,0
2019-04-16T02:11:51.122Z,0
2019-04-16T02:12:31.514Z,0
2019-04-16T02:13:14.487Z,0
2019-04-16T02:13:52.308Z,0
2019-04-16T02:14:32.853Z,0
2019-04-16T02:15:13.174Z,0
2019-04-16T02:15:54.372Z,0
2019-04-16T02:16:33.967Z,0
2019-04-16T02:17:14.376Z,0
2019-04-16T02:17:55.359Z,0
2019-04-16T02:18:35.174Z,0
2019-04-16T02:19:15.747Z,0
2019-04-16T02:19:56.740Z,0
2019-04-16T02:20:39.219Z,0
2019-04-16T02:21:17.536Z,0
2019-04-16T02:21:58.161Z,0
2019-04-16T02:22:38.667Z,0
2019-04-16T02:23:18.945Z,0
2019-04-16T02:23:59.308Z,0
2019-04-16T02:24:39.704Z,0
2019-04-16T02:25:20.284Z,0
2019-04-16T02:26:00.452Z,0
2019-04-16T02:26:40.867Z,0
2019-04-16T02:27:23.416Z,0
2019-04-16T02:28:01.635Z,0
2019-04-16T02:28:42.036Z,0
2019-04-16T02:29:22.525Z,0
2019-04-16T02:30:04.809Z,0
2019-04-16T02:30:43.225Z,0
2019-04-16T02:31:23.638Z,0
2019-04-16T02:32:04.162Z,0
2019-04-16T02:32:44.471Z,0
2019-04-16T02:33:24.818Z,0
2019-04-16T02:34:05.261Z,0
2019-04-16T02:34:45.594Z,0
2019-04-16T02:35:25.968Z,0
2019-04-16T02:36:06.634Z,0
2019-04-16T02:36:46.786Z,0
2019-04-16T02:37:27.192Z,0
2019-04-16T02:38:12.160Z,0
2019-04-16T02:38:53.070Z,0
2019-04-16T02:39:46.907Z,0
2019-04-16T02:40:10.539Z,0
2019-04-16T02:40:52.740Z,0
2019-04-16T02:41:29.602Z,0
2019-04-16T02:42:10.007Z,0
2019-04-16T02:42:50.403Z,0
2019-04-16T02:43:30.858Z,0
2019-04-16T02:44:15.860Z,0
2019-04-16T02:44:51.668Z,0
2019-04-16T02:45:32.041Z,0
2019-04-16T02:46:12.462Z,0
2019-04-16T02:46:52.867Z,0
2019-04-16T02:47:39.629Z,0
2019-04-16T02:48:16.551Z,0
2019-04-16T02:48:54.167Z,0
2019-04-16T02:49:34.594Z,0
2019-04-16T02:50:14.971Z,0
2019-04-16T02:50:55.375Z,0
2019-04-16T02:51:39.502Z,0
2019-04-16T02:52:17.277Z,0
2019-04-16T02:52:56.596Z,0
2019-04-16T02:53:36.988Z,0
2019-04-16T02:54:17.355Z,0
2019-04-16T02:54:57.805Z,0
2019-04-16T02:55:42.497Z,0
2019-04-16T02:56:19.230Z,0
2019-04-16T02:56:59.049Z,0
2019-04-16T02:57:39.478Z,0
2019-04-16T02:58:19.880Z,0
2019-04-16T02:59:00.306Z,0
2019-04-16T02:59:45.655Z,0
2019-04-16T03:00:21.065Z,0
2019-04-16T03:01:01.455Z,0
2019-04-16T03:01:41.859Z,0
2019-04-16T03:02:23.015Z,0
2019-04-16T03:03:02.626Z,0
2019-04-16T03:03:43.064Z,0
2019-04-16T03:04:26.641Z,0
2019-04-16T03:05:03.897Z,0
2019-04-16T03:05:44.296Z,0
2019-04-16T03:06:24.717Z,0
2019-04-16T03:07:05.131Z,0
2019-04-16T03:07:45.547Z,0
2019-04-16T03:08:25.975Z,0
2019-04-16T03:09:08.789Z,0
2019-04-16T03:10:00.209Z,0
2019-04-16T03:10:27.253Z,0
2019-04-16T03:11:08.088Z,0
2019-04-16T03:11:49.281Z,0
2019-04-16T03:12:29.340Z,0
2019-04-16T03:13:09.696Z,0
2019-04-16T03:13:52.410Z,0
2019-04-16T03:14:30.793Z,0
2019-04-16T03:15:10.935Z,0
2019-04-16T03:15:51.340Z,0
2019-04-16T03:16:31.745Z,0
2019-04-16T03:17:12.158Z,0
2019-04-16T03:17:52.577Z,0
2019-04-16T03:18:32.999Z,0
2019-04-16T03:19:13.428Z,0
2019-04-16T03:19:53.826Z,0
2019-04-16T03:20:34.246Z,0
2019-04-16T03:21:14.667Z,0
2019-04-16T03:21:55.735Z,0
2019-04-16T03:22:35.509Z,0
2019-04-16T03:23:15.900Z,0
2019-04-16T03:23:56.295Z,0
2019-04-16T03:24:37.450Z,0
2019-04-16T03:25:17.103Z,0
2019-04-16T03:25:57.503Z,0
2019-04-16T03:26:37.900Z,0
2019-04-16T03:27:21.787Z,0
2019-04-16T03:27:58.718Z,0
2019-04-16T03:28:39.114Z,0
2019-04-16T03:29:19.573Z,0
2019-04-16T03:30:03.308Z,0
2019-04-16T03:30:42.482Z,0
2019-04-16T03:31:23.313Z,0
2019-04-16T03:32:01.178Z,0
2019-04-16T03:32:41.585Z,0
2019-04-16T03:33:22.006Z,0
2019-04-16T03:34:02.447Z,0
2019-04-16T03:34:42.793Z,0
2019-04-16T03:35:26.327Z,0
2019-04-16T03:36:03.633Z,0
2019-04-16T03:36:44.038Z,0
2019-04-16T03:37:24.447Z,0
2019-04-16T03:38:06.162Z,0
2019-04-16T03:38:45.266Z,0
2019-04-16T03:39:25.652Z,0
2019-04-16T03:40:15.696Z,0
2019-04-16T03:40:46.486Z,0
2019-04-16T03:41:26.887Z,0
2019-04-16T03:42:07.314Z,0
2019-04-16T03:42:47.735Z,0
2019-04-16T03:43:29.440Z,0
2019-04-16T03:44:08.611Z,0
2019-04-16T03:44:49.002Z,0
2019-04-16T03:45:29.422Z,0
2019-04-16T03:46:12.700Z,0
2019-04-16T03:46:50.247Z,0
2019-04-16T03:47:30.642Z,0
2019-04-16T03:48:11.221Z,0
2019-04-16T03:48:52.518Z,0
2019-04-16T03:49:31.895Z,0
2019-04-16T03:50:12.294Z,0
2019-04-16T03:50:52.683Z,0
2019-04-16T03:51:35.407Z,0
2019-04-16T03:52:13.470Z,0
2019-04-16T03:52:53.843Z,0
2019-04-16T03:53:34.222Z,0
2019-04-16T03:54:14.614Z,0
2019-04-16T03:54:55.036Z,0
2019-04-16T03:55:35.386Z,0
2019-04-16T03:56:15.770Z,0
2019-04-16T03:56:56.217Z,0
2019-04-16T03:57:36.577Z,0
2019-04-16T03:58:17.020Z,0
2019-04-16T03:58:57.362Z,0
2019-04-16T03:59:39.932Z,0
2019-04-16T04:00:18.299Z,0
2019-04-16T04:00:58.729Z,0
2019-04-16T04:01:39.130Z,0
2019-04-16T04:02:22.768Z,0
2019-04-16T04:02:59.927Z,0
2019-04-16T04:03:40.281Z,0
2019-04-16T04:04:20.720Z,0
2019-04-16T04:05:04.391Z,0
2019-04-16T04:05:41.686Z,4
2019-04-16T04:06:22.069Z,4
2019-04-16T04:07:02.784Z,0
2019-04-16T04:07:44.109Z,0
2019-04-16T04:08:23.609Z,0
2019-04-16T04:09:04.049Z,4
2019-04-16T04:09:44.395Z,0
2019-04-16T04:10:30.642Z,0
2019-04-16T04:11:08.831Z,4
2019-04-16T04:11:45.603Z,4
2019-04-16T04:12:27.722Z,0
2019-04-16T04:13:07.093Z,4
2019-04-16T04:13:50.018Z,4
2019-04-16T04:14:27.962Z,4
2019-04-16T04:15:08.402Z,4
2019-04-16T04:15:48.794Z,4
2019-04-16T04:16:30.474Z,8
2019-04-16T04:17:09.574Z,4
2019-04-16T04:17:49.983Z,4
2019-04-16T04:18:30.368Z,8
2019-04-16T04:22:01.849Z,12
2019-04-16T04:22:57.010Z,16
2019-04-16T04:23:49.864Z,16
2019-04-16T05:06:27.743Z,1120
2019-04-16T05:07:05.740Z,1200
2019-04-16T05:07:46.171Z,1280
2019-04-16T05:08:28.613Z,1360
2019-04-16T05:09:09.063Z,1436
2019-04-16T05:11:48.291Z,1860
2019-04-16T05:12:26.087Z,2000
2019-04-16T05:13:06.575Z,2076
2019-04-16T05:13:47.010Z,2220
2019-04-16T05:14:28.105Z,2332
2019-04-16T05:15:09.211Z,2460
2019-04-16T05:15:49.661Z,2636
2019-04-16T05:16:31.445Z,2788
2019-04-16T05:17:10.358Z,2944
2019-04-16T05:17:51.856Z,3156
2019-04-16T05:20:22.622Z,3804
2019-04-16T05:21:04.088Z,4056
2019-04-16T05:21:44.523Z,4124
2019-04-16T05:22:24.782Z,4316
2019-04-16T05:23:05.177Z,4480
2019-04-16T05:23:45.669Z,4596
2019-04-16T05:24:28.821Z,4868
2019-04-16T05:25:06.515Z,5000
2019-04-16T05:25:46.884Z,5148
2019-04-16T05:26:29.836Z,5412
2019-04-16T05:27:09.399Z,5436
2019-04-16T05:27:53.313Z,5640
2019-04-16T05:28:37.204Z,5876
2019-04-16T05:29:18.053Z,6100
2019-04-16T05:29:57.567Z,6332
2019-04-16T05:30:38.384Z,6492
2019-04-16T05:31:24.075Z,6636
2019-04-16T05:32:03.190Z,6768
2019-04-16T05:32:45.352Z,7060
2019-04-16T05:33:26.515Z,7272
2019-04-16T05:34:07.782Z,7344
2019-04-16T05:34:48.804Z,7612
2019-04-16T05:35:30.209Z,7740
2019-04-16T05:36:10.730Z,8024
2019-04-16T05:36:52.921Z,8296
2019-04-16T05:37:34.770Z,8440
2019-04-16T05:38:20.393Z,8628
2019-04-16T05:39:00.022Z,8752
2019-04-16T05:39:40.412Z,9060
2019-04-16T05:44:40.059Z,11008
2019-04-16T05:45:20.672Z,11392
2019-04-16T05:47:50.431Z,12896
2019-04-16T05:48:31.000Z,13184
2019-04-16T05:49:13.482Z,13408
2019-04-16T05:49:54.327Z,13696
2019-04-16T05:50:34.695Z,13760
2019-04-16T05:51:15.232Z,14048
2019-04-16T05:51:55.702Z,14432
2019-04-16T05:52:38.310Z,14656
2019-04-16T05:53:18.643Z,14816
2019-04-16T05:53:59.154Z,14624
2019-04-16T05:54:41.405Z,15136
2019-04-16T05:55:20.094Z,15744
2019-04-16T05:56:01.104Z,16128
2019-04-16T05:56:42.499Z,16448
2019-04-16T05:57:25.771Z,16672
2019-04-16T05:58:03.526Z,17056
2019-04-16T05:58:44.034Z,16576
2019-04-16T05:59:24.313Z,16736
2019-04-16T06:00:09.146Z,17056
2019-04-16T06:00:45.171Z,17600
2019-04-16T06:01:26.274Z,17952
2019-04-16T06:02:07.144Z,17824
2019-04-16T06:02:50.415Z,18752
2019-04-16T06:03:29.010Z,18912
2019-04-16T06:04:09.613Z,18752
2019-04-16T06:04:50.044Z,18912
2019-04-16T06:05:30.542Z,19232
2019-04-16T06:06:14.238Z,19808
2019-04-16T06:06:54.671Z,20096
2019-04-16T06:13:13.466Z,22816
2019-04-16T06:13:54.467Z,23744
2019-04-16T06:14:37.806Z,24224
2019-04-16T06:15:21.062Z,24736
2019-04-16T06:15:58.474Z,24512
2019-04-16T06:16:40.603Z,25536
2019-04-16T06:17:21.144Z,26528
2019-04-16T06:18:02.404Z,27296
2019-04-16T06:18:42.824Z,28800
2019-04-16T06:19:23.216Z,29408
2019-04-16T06:20:03.663Z,31040
2019-04-16T06:20:49.287Z,31296
2019-04-16T06:21:30.861Z,32064
2019-04-16T06:22:12.245Z,30688
2019-04-16T06:22:54.927Z,28512
2019-04-16T06:23:35.595Z,26336
2019-04-16T06:24:15.793Z,24288
2019-04-16T06:24:56.547Z,22784
2019-04-16T06:25:40.924Z,21472
2019-04-16T06:26:19.949Z,19808
2019-04-16T06:27:00.394Z,18496
2019-04-16T06:27:40.865Z,18720
2019-04-16T06:28:23.473Z,18688
2019-04-16T06:29:04.746Z,18272
2019-04-16T06:29:46.999Z,17088
2019-04-16T06:30:25.876Z,16896
2019-04-16T06:31:09.995Z,15904
2019-04-16T06:31:46.756Z,14752
2019-04-16T06:32:28.086Z,15008
2019-04-16T06:33:07.772Z,13984
2019-04-16T06:33:48.332Z,14592
2019-04-16T06:34:29.607Z,13376
2019-04-16T06:35:11.921Z,14528
2019-04-16T06:35:52.491Z,14528
2019-04-16T06:36:35.343Z,14528
2019-04-16T06:37:20.240Z,15168
2019-04-16T06:37:58.547Z,15584
2019-04-16T06:38:44.226Z,15968
2019-04-16T06:39:26.491Z,16288
2019-04-16T06:40:08.905Z,16096
2019-04-16T06:42:38.547Z,16064
2019-04-16T06:43:18.495Z,16384
2019-04-16T06:43:59.940Z,16512
2019-04-16T06:44:40.111Z,16512
2019-04-16T06:45:23.474Z,16736
2019-04-16T06:46:05.383Z,16896
2019-04-16T06:46:44.321Z,16960
2019-04-16T06:47:28.911Z,16672
2019-04-16T06:48:14.749Z,16448
2019-04-16T06:48:55.958Z,16192
2019-04-16T06:49:39.471Z,16512
2019-04-16T06:50:30.069Z,16384
2019-04-16T06:50:59.406Z,16800
2019-04-16T06:51:43.378Z,16800
2019-04-16T06:52:21.096Z,16896
2019-04-16T06:53:01.480Z,17088
2019-04-16T06:53:42.129Z,17504
2019-04-16T06:54:31.686Z,16992
2019-04-16T06:55:08.975Z,16160
2019-04-16T06:55:50.884Z,15808
2019-04-16T06:56:34.289Z,15296
2019-04-16T06:57:14.972Z,14944
2019-04-16T06:57:55.160Z,14496
2019-04-16T06:58:50.111Z,14100
2019-04-16T06:59:17.943Z,13916
2019-04-16T07:00:02.302Z,13556
2019-04-16T07:00:41.042Z,13328
2019-04-16T07:01:22.566Z,13292
2019-04-16T07:02:07.556Z,13472
2019-04-16T07:03:01.232Z,13848
2019-04-16T07:03:27.253Z,14176
2019-04-16T07:04:08.795Z,13704
2019-04-16T07:04:50.353Z,13364
2019-04-16T07:05:33.053Z,13248
2019-04-16T07:09:25.162Z,10952
2019-04-16T07:10:03.672Z,10640
2019-04-16T07:10:44.969Z,10428
2019-04-16T07:11:24.936Z,10192
2019-04-16T07:12:08.975Z,9924
2019-04-16T07:12:53.660Z,10208
2019-04-16T07:13:34.089Z,10776
2019-04-16T07:14:15.204Z,10860
2019-04-16T07:14:55.099Z,10756
2019-04-16T07:15:36.283Z,10244
2019-04-16T07:18:53.585Z,10004
2019-04-16T07:19:33.964Z,10164
2019-04-16T07:20:17.084Z,10168
2019-04-16T07:20:58.624Z,9928
2019-04-16T07:21:39.304Z,8588
2019-04-16T07:22:21.178Z,7732
2019-04-16T07:23:00.281Z,7468
2019-04-16T07:23:41.461Z,6936
2019-04-16T07:24:23.380Z,6404
2019-04-16T07:25:05.037Z,6092
2019-04-16T07:25:48.306Z,5896
2019-04-16T07:26:30.299Z,5764
2019-04-16T07:27:10.697Z,5700
2019-04-16T07:27:53.175Z,5660
2019-04-16T07:28:33.380Z,5584
2019-04-16T07:29:14.019Z,5452
2019-04-16T07:29:54.349Z,5256
2019-04-16T07:30:39.673Z,5092
2019-04-16T07:31:32.536Z,5004
2019-04-16T07:31:59.950Z,4936
2019-04-16T07:32:42.027Z,4868
2019-04-16T07:33:29.163Z,4740
2019-04-16T07:34:13.025Z,4684
2019-04-16T07:34:52.644Z,4684
2019-04-16T07:35:35.440Z,4616
2019-04-16T07:36:15.780Z,4548
2019-04-16T07:37:00.407Z,4576
2019-04-16T07:37:40.530Z,4368
2019-04-16T07:38:21.547Z,4352
2019-04-16T07:39:04.995Z,4208
2019-04-16T07:39:43.002Z,4104
2019-04-16T07:40:23.421Z,4048
2019-04-16T07:41:10.602Z,3968
2019-04-16T07:41:45.961Z,3900
2019-04-16T07:42:28.257Z,3888
2019-04-16T07:43:09.013Z,3796
2019-04-16T07:43:49.617Z,3740
2019-04-16T07:44:32.475Z,3708
2019-04-16T07:45:14.504Z,3688
2019-04-16T07:45:55.130Z,3628
2019-04-16T07:46:35.449Z,3588
2019-04-16T07:47:19.603Z,3548
2019-04-16T07:48:05.325Z,3516
2019-04-16T07:48:42.557Z,3496
2019-04-16T07:49:23.393Z,3500
2019-04-16T07:50:03.375Z,3468
2019-04-16T07:50:44.982Z,3436
2019-04-16T07:51:26.239Z,3432
2019-04-16T07:52:11.636Z,3424
2019-04-16T07:52:48.565Z,3444
2019-04-16T07:53:29.017Z,3440
2019-04-16T07:54:10.371Z,3464
2019-04-16T07:54:56.001Z,3544
2019-04-16T07:55:37.785Z,3592
2019-04-16T07:56:18.197Z,3636
2019-04-16T07:57:00.617Z,3684
2019-04-16T07:57:42.024Z,3724
2019-04-16T07:58:26.316Z,3748
2019-04-16T07:59:06.640Z,3776
2019-04-16T07:59:47.367Z,3772
2019-04-16T08:00:27.879Z,3768
2019-04-16T08:01:11.060Z,3752
2019-04-16T08:01:52.550Z,3744
2019-04-16T08:02:34.688Z,3740
2019-04-16T08:03:15.316Z,3736
2019-04-16T08:03:56.713Z,3740
2019-04-16T08:04:36.495Z,3764
2019-04-16T08:05:27.756Z,3796
2019-04-16T08:06:05.624Z,3820
2019-04-16T08:06:47.266Z,3856
2019-04-16T08:07:27.592Z,3892
2019-04-16T08:08:08.184Z,3916
2019-04-16T08:08:48.823Z,3936
2019-04-16T08:09:30.071Z,3956
2019-04-16T08:10:10.118Z,3924
2019-04-16T08:10:50.934Z,3960
2019-04-16T08:11:32.811Z,3800
2019-04-16T08:12:29.206Z,3824
2019-04-16T08:12:56.848Z,3752
2019-04-16T08:13:35.608Z,3688
2019-04-16T08:14:16.149Z,3752
2019-04-16T08:14:56.435Z,3908
2019-04-16T08:15:37.870Z,4012
2019-04-16T08:16:19.067Z,4092
2019-04-16T08:17:00.882Z,4172
2019-04-16T08:17:42.317Z,4200
2019-04-16T08:18:22.685Z,4212
2019-04-16T08:19:03.118Z,4236
2019-04-16T08:19:44.636Z,4260
2019-04-16T08:20:24.260Z,4260
2019-04-16T08:21:11.622Z,4260
2019-04-16T08:21:48.501Z,4244
2019-04-16T08:22:28.957Z,4216
2019-04-16T08:26:37.232Z,4000
2019-04-16T08:27:18.922Z,4000
2019-04-16T08:27:58.119Z,4012
2019-04-16T08:28:38.557Z,3956
2019-04-16T08:29:26.277Z,3876
2019-04-16T08:30:08.684Z,3740
2019-04-16T08:30:49.328Z,3788
2019-04-16T08:31:29.723Z,3740
2019-04-16T08:32:12.730Z,3704
2019-04-16T08:32:52.682Z,3688
2019-04-16T08:33:33.048Z,3640
2019-04-16T08:34:15.365Z,3592
2019-04-16T08:34:55.810Z,3560
2019-04-16T08:35:36.202Z,3528
2019-04-16T08:36:16.546Z,3496
2019-04-16T08:37:00.226Z,3436
2019-04-16T08:37:48.634Z,3420
2019-04-16T08:38:34.012Z,3392
2019-04-16T08:39:09.881Z,3368
2019-04-16T08:39:50.533Z,3348
2019-04-16T08:40:30.946Z,3308
2019-04-16T08:41:19.678Z,3268
2019-04-16T08:41:57.853Z,3212
2019-04-16T08:42:44.529Z,3160
2019-04-16T08:43:23.242Z,3104
2019-04-16T08:44:05.428Z,3060
2019-04-16T08:44:45.870Z,3020
2019-04-16T08:45:26.997Z,2980
2019-04-16T08:46:11.469Z,2940
2019-04-16T08:46:50.545Z,2900
2019-04-16T08:47:34.899Z,2860
2019-04-16T08:48:18.325Z,2812
2019-04-16T08:48:55.632Z,2768
2019-04-16T08:49:38.032Z,2728
2019-04-16T08:50:25.760Z,2680
2019-04-16T08:51:04.244Z,2652
2019-04-16T08:51:41.581Z,2616
2019-04-16T08:52:22.058Z,2588
2019-04-16T08:53:02.537Z,2564
2019-04-16T08:53:43.677Z,2540
2019-04-16T08:54:23.991Z,2528
2019-04-16T08:55:06.734Z,2508
2019-04-16T08:55:48.996Z,2496
2019-04-16T08:56:29.590Z,2468
2019-04-16T08:57:10.166Z,2456
2019-04-16T08:57:50.594Z,2456
2019-04-16T08:58:32.168Z,2448
2019-04-16T08:59:12.852Z,2436
2019-04-16T08:59:54.324Z,2416
2019-04-16T09:00:35.135Z,2420
2019-04-16T09:01:18.382Z,2416
2019-04-16T09:01:59.120Z,2420
2019-04-16T09:02:40.350Z,2404
2019-04-16T09:03:20.893Z,2428
2019-04-16T09:04:02.931Z,2416
2019-04-16T09:04:45.800Z,2404
2019-04-16T09:05:28.117Z,2396
2019-04-16T09:06:12.745Z,2396
2019-04-16T09:06:49.169Z,2384
2019-04-16T09:07:34.648Z,2388
2019-04-16T09:08:15.476Z,2384
2019-04-16T09:09:11.041Z,2392
2019-04-16T09:09:38.012Z,2392
2019-04-16T09:10:23.181Z,2400
2019-04-16T09:11:03.232Z,2388
2019-04-16T09:11:41.205Z,2396
2019-04-16T09:12:27.447Z,2384
2019-04-16T09:13:08.001Z,2380
2019-04-16T09:13:50.406Z,2352
2019-04-16T09:14:32.133Z,2304
2019-04-16T09:15:20.477Z,2264
2019-04-16T09:16:02.183Z,2268
2019-04-16T09:16:43.554Z,2232
2019-04-16T09:17:22.971Z,2264
2019-04-16T09:18:03.557Z,2248
2019-04-16T09:18:43.974Z,2268
2019-04-16T09:19:24.443Z,2248
2019-04-16T09:20:06.538Z,2304
2019-04-16T09:20:47.039Z,2288
2019-04-16T09:21:28.014Z,2276
2019-04-16T09:22:07.968Z,2280
2019-04-16T09:22:53.580Z,2296
2019-04-16T09:23:32.586Z,2288
2019-04-16T09:27:20.424Z,2292
2019-04-16T09:28:01.864Z,2280
2019-04-16T09:28:41.608Z,2276
2019-04-16T09:29:22.176Z,2264
2019-04-16T09:30:02.810Z,2264
2019-04-16T09:30:46.574Z,2240
2019-04-16T09:31:24.453Z,2228
2019-04-16T09:32:05.107Z,2232
2019-04-16T09:32:46.103Z,2240
2019-04-16T09:33:26.692Z,2244
2019-04-16T09:34:07.172Z,2236
2019-04-16T09:34:47.624Z,2216
2019-04-16T09:35:28.083Z,2204
2019-04-16T09:36:08.451Z,2220
2019-04-16T09:36:48.867Z,2216
2019-04-16T09:37:29.364Z,2212
2019-04-16T09:38:12.959Z,2228
2019-04-16T09:38:50.067Z,2236
2019-04-16T09:39:30.574Z,2240
2019-04-16T09:40:16.952Z,2236
2019-04-16T09:40:51.468Z,2236
2019-04-16T09:41:32.086Z,2236
2019-04-16T09:42:12.703Z,2240
2019-04-16T09:42:53.076Z,2240
2019-04-16T09:43:33.517Z,2248
2019-04-16T09:44:13.925Z,2248
2019-04-16T09:44:54.306Z,2264
2019-04-16T09:45:37.115Z,2272
2019-04-16T09:46:20.767Z,2268
2019-04-16T09:46:59.361Z,2268
2019-04-16T09:47:36.344Z,2268
2019-04-16T09:48:16.760Z,2272
2019-04-16T09:48:57.274Z,2268
2019-04-16T09:49:38.378Z,2272
2019-04-16T09:50:18.443Z,2264
2019-04-16T09:50:58.828Z,2244
2019-04-16T09:51:39.768Z,2252
2019-04-16T09:52:22.926Z,2244
2019-04-16T09:53:01.940Z,2236
2019-04-16T09:53:41.239Z,2232
2019-04-16T09:54:22.502Z,2236
2019-04-16T09:55:03.511Z,2232
2019-04-16T09:55:43.850Z,2224
2019-04-16T09:56:28.240Z,2220
2019-04-16T09:57:04.983Z,2216
2019-04-16T09:57:45.406Z,2224
2019-04-16T09:58:25.935Z,2212
2019-04-16T09:59:06.347Z,2204
2019-04-16T09:59:47.626Z,2196
2019-04-16T10:00:27.163Z,2208
2019-04-16T10:01:07.667Z,2196
2019-04-16T10:01:48.105Z,2192
2019-04-16T10:02:29.010Z,2188
2019-04-16T10:03:10.293Z,2184
2019-04-16T10:03:53.533Z,2160
2019-04-16T10:04:31.055Z,2156
2019-04-16T10:05:11.886Z,2140
2019-04-16T10:05:52.604Z,2144
2019-04-16T10:06:32.976Z,2140
2019-04-16T10:07:13.437Z,2140
2019-04-16T10:07:56.774Z,2116
2019-04-16T10:08:35.147Z,2124
2019-04-16T10:09:19.710Z,2120
2019-04-16T10:09:55.828Z,2116
2019-04-16T10:10:36.446Z,2100
2019-04-16T10:11:18.858Z,2096
2019-04-16T10:11:57.617Z,2092
2019-04-16T10:12:38.036Z,2084
2019-04-16T10:13:29.867Z,2072
2019-04-16T10:13:58.917Z,2068
2019-04-16T10:14:39.390Z,2052
2019-04-16T10:15:19.811Z,2040
2019-04-16T10:16:00.763Z,2032
2019-04-16T10:16:40.863Z,2020
2019-04-16T10:17:21.259Z,2012
2019-04-16T10:18:02.423Z,1996
2019-04-16T10:18:42.063Z,2000
2019-04-16T10:19:22.397Z,1996
2019-04-16T10:20:03.041Z,1996
2019-04-16T10:20:43.471Z,1992
2019-04-16T10:21:24.161Z,1988
2019-04-16T10:22:04.511Z,1988
2019-04-16T10:22:45.156Z,1980
2019-04-16T10:23:25.654Z,1980
2019-04-16T10:24:06.014Z,1976
2019-04-16T10:24:46.511Z,1964
2019-04-16T10:25:27.870Z,1960
2019-04-16T10:26:08.282Z,1960
2019-04-16T10:26:48.775Z,1952
2019-04-16T10:27:32.204Z,1956
2019-04-16T10:28:09.697Z,1952
2019-04-16T10:28:51.935Z,1944
2019-04-16T10:29:32.487Z,1940
2019-04-16T11:08:18.818Z,1756
2019-04-16T11:09:01.230Z,1752
2019-04-16T11:09:43.483Z,1752
2019-04-16T11:10:26.330Z,1748
2019-04-16T11:11:06.689Z,1736
2019-04-16T11:11:47.256Z,1744
2019-04-16T11:12:27.696Z,1740
2019-04-16T11:13:08.251Z,1736
2019-04-16T11:13:59.560Z,1728
2019-04-16T11:14:30.361Z,1716
2019-04-16T11:15:11.093Z,1732
2019-04-16T11:15:53.253Z,1712
2019-04-16T11:16:35.945Z,1708
2019-04-16T11:17:15.822Z,1712
2019-04-16T11:17:56.210Z,1724
2019-04-16T11:18:36.601Z,1712
2019-04-16T11:19:17.036Z,1688
2019-04-16T11:20:00.104Z,1688
2019-04-16T11:20:41.668Z,1704
2019-04-16T11:21:22.721Z,1696
2019-04-16T11:22:05.070Z,1692
2019-04-16T11:22:45.779Z,1684
2019-04-16T11:23:26.290Z,1664